CheckWX is a tool to help pilots better visualize weather data.  It is not intended as a substitute for an official pre-flight weather briefing.

18:03:21 UTC

CYKP METAR
Ogoki Post
Ogoki Post, Canada
Current

1 hour ago

CYKP 241700Z AUTO 14005KT 080V210 9SM CLR 12/M01 A3019 RMK SLP231
Observed
May-24 @ 17:00 UTC
Wind
  • 140° at 5 KTS
Visibility
9 SM
Flight Rules
VFR
Cloud Levels
  • Clear skies
Temperature
12°C / 54°F
Dewpoint
-1°C / 30°F
Humidity
41%
Altimeter
30.19" Hg
Pressure
1022.32 hPa
Previous

2 hours ago

CYKP 241600Z AUTO VRB06KT 9SM CLR 10/M00 A3021 RMK SLP237
Observed
May-24 @ 16:00 UTC
Wind
  • Variable at 6 KTS
Visibility
9 SM
Flight Rules
VFR
Cloud Levels
  • Clear skies
Temperature
10°C / 50°F
Dewpoint
C / 32°F
Humidity
50%
Altimeter
30.21" Hg
Pressure
1023.02 hPa
Previous

3 hours ago

CYKP 241500Z AUTO VRB06KT 9SM CLR 09/M00 A3022 RMK SLP242
Observed
May-24 @ 15:00 UTC
Wind
  • Variable at 6 KTS
Visibility
9 SM
Flight Rules
VFR
Cloud Levels
  • Clear skies
Temperature
C / 48°F
Dewpoint
C / 32°F
Humidity
54%
Altimeter
30.22" Hg
Pressure
1023.42 hPa